sensor_id;sensor_type;location;lat;lon;timestamp;temperature;humidity
75824;DHT22;64457;51.976;9.834;2024-03-17T00:01:44;8.90;95.40
75824;DHT22;64457;51.976;9.834;2024-03-17T00:04:10;8.90;95.80
75824;DHT22;64457;51.976;9.834;2024-03-17T00:06:39;8.60;96.20
75824;DHT22;64457;51.976;9.834;2024-03-17T00:09:06;8.50;96.50
75824;DHT22;64457;51.976;9.834;2024-03-17T00:11:35;8.50;96.30
75824;DHT22;64457;51.976;9.834;2024-03-17T00:14:02;8.60;96.20
75824;DHT22;64457;51.976;9.834;2024-03-17T00:16:29;8.40;96.70
75824;DHT22;64457;51.976;9.834;2024-03-17T00:18:56;8.30;97.00
75824;DHT22;64457;51.976;9.834;2024-03-17T00:21:23;8.10;97.20
75824;DHT22;64457;51.976;9.834;2024-03-17T00:23:53;8.10;97.50
75824;DHT22;64457;51.976;9.834;2024-03-17T00:26:21;8.10;97.50
75824;DHT22;64457;51.976;9.834;2024-03-17T00:28:48;8.20;97.30
75824;DHT22;64457;51.976;9.834;2024-03-17T00:31:17;8.20;97.10
75824;DHT22;64457;51.976;9.834;2024-03-17T00:33:44;8.30;96.90
75824;DHT22;64457;51.976;9.834;2024-03-17T00:36:12;8.40;96.60
75824;DHT22;64457;51.976;9.834;2024-03-17T00:38:38;8.40;96.30
75824;DHT22;64457;51.976;9.834;2024-03-17T00:41:07;8.40;96.10
75824;DHT22;64457;51.976;9.834;2024-03-17T00:43:34;8.40;96.10
75824;DHT22;64457;51.976;9.834;2024-03-17T00:46:03;8.30;96.50
75824;DHT22;64457;51.976;9.834;2024-03-17T00:48:32;8.20;97.00
75824;DHT22;64457;51.976;9.834;2024-03-17T00:51:02;8.00;97.00
75824;DHT22;64457;51.976;9.834;2024-03-17T00:53:32;8.00;97.00
75824;DHT22;64457;51.976;9.834;2024-03-17T00:55:59;8.00;96.80
75824;DHT22;64457;51.976;9.834;2024-03-17T00:58:28;7.90;96.50
75824;DHT22;64457;51.976;9.834;2024-03-17T01:00:55;8.00;96.50
75824;DHT22;64457;51.976;9.834;2024-03-17T01:03:22;8.10;96.80
75824;DHT22;64457;51.976;9.834;2024-03-17T01:05:49;8.10;96.70
75824;DHT22;64457;51.976;9.834;2024-03-17T01:08:21;8.10;96.50
75824;DHT22;64457;51.976;9.834;2024-03-17T01:10:49;8.10;96.30
75824;DHT22;64457;51.976;9.834;2024-03-17T01:13:16;8.00;96.20
75824;DHT22;64457;51.976;9.834;2024-03-17T01:15:46;8.10;96.20
75824;DHT22;64457;51.976;9.834;2024-03-17T01:18:17;8.00;96.20
75824;DHT22;64457;51.976;9.834;2024-03-17T01:20:45;8.00;96.10
75824;DHT22;64457;51.976;9.834;2024-03-17T01:23:11;7.90;96.20
75824;DHT22;64457;51.976;9.834;2024-03-17T01:25:43;7.90;96.00
75824;DHT22;64457;51.976;9.834;2024-03-17T01:28:09;7.90;95.90
75824;DHT22;64457;51.976;9.834;2024-03-17T01:30:38;7.90;95.90
75824;DHT22;64457;51.976;9.834;2024-03-17T01:33:08;7.80;95.80
75824;DHT22;64457;51.976;9.834;2024-03-17T01:35:36;7.70;96.30
75824;DHT22;64457;51.976;9.834;2024-03-17T01:38:03;7.50;96.70
75824;DHT22;64457;51.976;9.834;2024-03-17T01:40:30;7.40;97.20
75824;DHT22;64457;51.976;9.834;2024-03-17T01:42:58;7.20;97.70
75824;DHT22;64457;51.976;9.834;2024-03-17T01:45:28;7.20;97.60
75824;DHT22;64457;51.976;9.834;2024-03-17T01:47:56;7.20;97.50
75824;DHT22;64457;51.976;9.834;2024-03-17T01:50:27;7.30;97.30
75824;DHT22;64457;51.976;9.834;2024-03-17T01:53:00;7.30;96.90
75824;DHT22;64457;51.976;9.834;2024-03-17T01:55:30;7.40;96.90
75824;DHT22;64457;51.976;9.834;2024-03-17T01:58:00;7.40;97.10
75824;DHT22;64457;51.976;9.834;2024-03-17T02:00:31;7.70;97.10
75824;DHT22;64457;51.976;9.834;2024-03-17T02:02:59;7.40;96.60
75824;DHT22;64457;51.976;9.834;2024-03-17T02:05:29;7.30;96.90
75824;DHT22;64457;51.976;9.834;2024-03-17T02:07:55;7.10;97.40
75824;DHT22;64457;51.976;9.834;2024-03-17T02:10:23;7.10;97.90
75824;DHT22;64457;51.976;9.834;2024-03-17T02:12:51;7.10;97.90
75824;DHT22;64457;51.976;9.834;2024-03-17T02:15:19;7.10;97.50
75824;DHT22;64457;51.976;9.834;2024-03-17T02:17:45;7.10;97.40
75824;DHT22;64457;51.976;9.834;2024-03-17T02:20:13;7.20;97.30
75824;DHT22;64457;51.976;9.834;2024-03-17T02:22:41;7.10;97.10
75824;DHT22;64457;51.976;9.834;2024-03-17T02:25:08;7.10;97.40
75824;DHT22;64457;51.976;9.834;2024-03-17T02:27:35;7.00;97.30
75824;DHT22;64457;51.976;9.834;2024-03-17T02:30:03;6.90;97.50
75824;DHT22;64457;51.976;9.834;2024-03-17T02:32:30;6.70;98.20
75824;DHT22;64457;51.976;9.834;2024-03-17T02:34:57;6.70;98.20
75824;DHT22;64457;51.976;9.834;2024-03-17T02:37:23;6.50;98.80
75824;DHT22;64457;51.976;9.834;2024-03-17T02:39:52;6.60;98.60
75824;DHT22;64457;51.976;9.834;2024-03-17T02:42:19;6.60;98.60
75824;DHT22;64457;51.976;9.834;2024-03-17T02:44:46;6.90;98.00
75824;DHT22;64457;51.976;9.834;2024-03-17T02:47:13;6.90;97.90
75824;DHT22;64457;51.976;9.834;2024-03-17T02:49:41;6.90;97.70
75824;DHT22;64457;51.976;9.834;2024-03-17T02:52:10;6.90;97.50
75824;DHT22;64457;51.976;9.834;2024-03-17T02:54:38;6.80;97.70
75824;DHT22;64457;51.976;9.834;2024-03-17T02:57:07;6.70;97.80
75824;DHT22;64457;51.976;9.834;2024-03-17T02:59:35;6.60;97.90
75824;DHT22;64457;51.976;9.834;2024-03-17T03:02:02;6.50;98.20
75824;DHT22;64457;51.976;9.834;2024-03-17T03:04:30;6.50;97.90
75824;DHT22;64457;51.976;9.834;2024-03-17T03:06:58;6.60;98.00
75824;DHT22;64457;51.976;9.834;2024-03-17T03:09:25;6.60;97.80
75824;DHT22;64457;51.976;9.834;2024-03-17T03:11:57;6.70;97.50
75824;DHT22;64457;51.976;9.834;2024-03-17T03:14:26;6.70;97.50
75824;DHT22;64457;51.976;9.834;2024-03-17T03:16:54;6.60;97.60
75824;DHT22;64457;51.976;9.834;2024-03-17T03:19:21;6.60;97.50
75824;DHT22;64457;51.976;9.834;2024-03-17T03:21:48;6.60;97.60
75824;DHT22;64457;51.976;9.834;2024-03-17T03:24:18;6.50;97.70
75824;DHT22;64457;51.976;9.834;2024-03-17T03:26:46;6.50;97.70
75824;DHT22;64457;51.976;9.834;2024-03-17T03:29:14;6.50;97.70
75824;DHT22;64457;51.976;9.834;2024-03-17T03:31:42;6.50;97.50
75824;DHT22;64457;51.976;9.834;2024-03-17T03:34:10;6.40;97.80
75824;DHT22;64457;51.976;9.834;2024-03-17T03:36:39;6.30;98.00
75824;DHT22;64457;51.976;9.834;2024-03-17T03:39:09;6.30;97.90
75824;DHT22;64457;51.976;9.834;2024-03-17T03:41:39;6.20;98.30
75824;DHT22;64457;51.976;9.834;2024-03-17T03:44:15;6.40;98.30
75824;DHT22;64457;51.976;9.834;2024-03-17T03:46:45;6.30;98.10
75824;DHT22;64457;51.976;9.834;2024-03-17T03:49:13;6.20;98.10
75824;DHT22;64457;51.976;9.834;2024-03-17T03:51:47;6.10;98.30
75824;DHT22;64457;51.976;9.834;2024-03-17T03:54:14;6.10;98.30
75824;DHT22;64457;51.976;9.834;2024-03-17T03:56:41;6.30;98.20
75824;DHT22;64457;51.976;9.834;2024-03-17T03:59:10;6.40;98.00
75824;DHT22;64457;51.976;9.834;2024-03-17T04:01:40;6.40;97.70
75824;DHT22;64457;51.976;9.834;2024-03-17T04:04:08;6.40;98.00
75824;DHT22;64457;51.976;9.834;2024-03-17T04:06:36;6.40;97.80
75824;DHT22;64457;51.976;9.834;2024-03-17T04:09:03;6.30;97.90
75824;DHT22;64457;51.976;9.834;2024-03-17T04:11:33;6.40;98.00
75824;DHT22;64457;51.976;9.834;2024-03-17T04:14:01;6.40;97.80
75824;DHT22;64457;51.976;9.834;2024-03-17T04:16:31;6.50;97.90
75824;DHT22;64457;51.976;9.834;2024-03-17T04:18:59;6.40;97.70
75824;DHT22;64457;51.976;9.834;2024-03-17T04:21:28;6.40;97.70
75824;DHT22;64457;51.976;9.834;2024-03-17T04:23:55;6.40;97.50
75824;DHT22;64457;51.976;9.834;2024-03-17T04:26:25;6.40;97.30
75824;DHT22;64457;51.976;9.834;2024-03-17T04:28:52;6.40;97.40
75824;DHT22;64457;51.976;9.834;2024-03-17T04:31:20;6.40;97.30
75824;DHT22;64457;51.976;9.834;2024-03-17T04:33:46;6.50;97.10
75824;DHT22;64457;51.976;9.834;2024-03-17T04:36:14;6.40;97.30
75824;DHT22;64457;51.976;9.834;2024-03-17T04:38:42;6.30;97.10
75824;DHT22;64457;51.976;9.834;2024-03-17T04:41:10;6.30;97.20
75824;DHT22;64457;51.976;9.834;2024-03-17T04:43:42;6.30;97.10
75824;DHT22;64457;51.976;9.834;2024-03-17T04:46:09;6.30;96.70
75824;DHT22;64457;51.976;9.834;2024-03-17T04:48:38;6.30;96.90
75824;DHT22;64457;51.976;9.834;2024-03-17T04:51:06;6.20;96.90
75824;DHT22;64457;51.976;9.834;2024-03-17T04:53:35;6.20;97.00
75824;DHT22;64457;51.976;9.834;2024-03-17T04:56:05;6.10;97.10
75824;DHT22;64457;51.976;9.834;2024-03-17T04:58:35;5.90;97.40
75824;DHT22;64457;51.976;9.834;2024-03-17T05:01:06;5.50;98.40
75824;DHT22;64457;51.976;9.834;2024-03-17T05:03:34;5.50;98.60
75824;DHT22;64457;51.976;9.834;2024-03-17T05:06:03;5.50;98.70
75824;DHT22;64457;51.976;9.834;2024-03-17T05:08:35;5.60;98.50
75824;DHT22;64457;51.976;9.834;2024-03-17T05:11:05;5.60;98.10
75824;DHT22;64457;51.976;9.834;2024-03-17T05:13:33;5.70;98.10
75824;DHT22;64457;51.976;9.834;2024-03-17T05:16:02;5.70;97.80
75824;DHT22;64457;51.976;9.834;2024-03-17T05:18:30;5.70;97.80
75824;DHT22;64457;51.976;9.834;2024-03-17T05:20:59;5.70;97.70
75824;DHT22;64457;51.976;9.834;2024-03-17T05:23:27;5.80;97.60
75824;DHT22;64457;51.976;9.834;2024-03-17T05:25:58;5.80;97.50
75824;DHT22;64457;51.976;9.834;2024-03-17T05:28:29;5.80;97.50
75824;DHT22;64457;51.976;9.834;2024-03-17T05:30:57;5.90;97.30
75824;DHT22;64457;51.976;9.834;2024-03-17T05:33:25;5.80;97.20
75824;DHT22;64457;51.976;9.834;2024-03-17T05:35:54;5.80;97.10
75824;DHT22;64457;51.976;9.834;2024-03-17T05:38:23;5.80;97.40
75824;DHT22;64457;51.976;9.834;2024-03-17T05:40:54;5.90;97.60
75824;DHT22;64457;51.976;9.834;2024-03-17T05:43:22;5.90;97.60
75824;DHT22;64457;51.976;9.834;2024-03-17T05:45:52;6.00;97.70
75824;DHT22;64457;51.976;9.834;2024-03-17T05:48:20;5.80;98.30
75824;DHT22;64457;51.976;9.834;2024-03-17T05:50:48;5.70;98.70
75824;DHT22;64457;51.976;9.834;2024-03-17T05:53:17;5.90;98.70
75824;DHT22;64457;51.976;9.834;2024-03-17T05:55:44;6.00;98.40
75824;DHT22;64457;51.976;9.834;2024-03-17T05:58:12;6.10;98.30
75824;DHT22;64457;51.976;9.834;2024-03-17T06:00:40;6.10;98.10
75824;DHT22;64457;51.976;9.834;2024-03-17T06:03:09;6.00;98.20
75824;DHT22;64457;51.976;9.834;2024-03-17T06:05:38;6.10;98.00
75824;DHT22;64457;51.976;9.834;2024-03-17T06:08:07;6.10;98.30
75824;DHT22;64457;51.976;9.834;2024-03-17T06:10:38;6.30;98.00
75824;DHT22;64457;51.976;9.834;2024-03-17T06:13:09;6.50;98.10
75824;DHT22;64457;51.976;9.834;2024-03-17T06:15:39;6.50;98.10
75824;DHT22;64457;51.976;9.834;2024-03-17T06:18:09;6.50;98.20
75824;DHT22;64457;51.976;9.834;2024-03-17T06:20:40;6.40;98.20
75824;DHT22;64457;51.976;9.834;2024-03-17T06:23:09;6.50;98.40
75824;DHT22;64457;51.976;9.834;2024-03-17T06:25:40;6.60;98.50
75824;DHT22;64457;51.976;9.834;2024-03-17T06:28:08;6.90;98.50
75824;DHT22;64457;51.976;9.834;2024-03-17T06:30:39;7.20;98.00
75824;DHT22;64457;51.976;9.834;2024-03-17T06:33:09;7.00;96.70
75824;DHT22;64457;51.976;9.834;2024-03-17T06:35:39;6.90;97.50
75824;DHT22;64457;51.976;9.834;2024-03-17T06:38:06;7.10;97.40
75824;DHT22;64457;51.976;9.834;2024-03-17T06:40:36;6.80;97.10
75824;DHT22;64457;51.976;9.834;2024-03-17T06:43:04;6.60;97.80
75824;DHT22;64457;51.976;9.834;2024-03-17T06:45:34;6.80;98.30
75824;DHT22;64457;51.976;9.834;2024-03-17T06:48:01;7.10;98.20
75824;DHT22;64457;51.976;9.834;2024-03-17T06:50:30;7.10;97.40
75824;DHT22;64457;51.976;9.834;2024-03-17T06:52:57;6.90;96.90
75824;DHT22;64457;51.976;9.834;2024-03-17T06:55:25;6.80;97.50
75824;DHT22;64457;51.976;9.834;2024-03-17T06:57:53;6.60;97.30
75824;DHT22;64457;51.976;9.834;2024-03-17T07:00:21;6.50;98.20
75824;DHT22;64457;51.976;9.834;2024-03-17T07:02:51;6.40;98.60
75824;DHT22;64457;51.976;9.834;2024-03-17T07:05:18;6.10;98.10
75824;DHT22;64457;51.976;9.834;2024-03-17T07:07:51;6.10;98.80
75824;DHT22;64457;51.976;9.834;2024-03-17T07:10:18;6.10;98.50
75824;DHT22;64457;51.976;9.834;2024-03-17T07:12:46;6.00;98.80
75824;DHT22;64457;51.976;9.834;2024-03-17T07:15:13;6.10;99.40
75824;DHT22;64457;51.976;9.834;2024-03-17T07:17:41;6.10;98.90
75824;DHT22;64457;51.976;9.834;2024-03-17T07:20:08;5.90;99.40
75824;DHT22;64457;51.976;9.834;2024-03-17T07:22:38;5.80;99.90
75824;DHT22;64457;51.976;9.834;2024-03-17T07:25:08;6.00;99.90
75824;DHT22;64457;51.976;9.834;2024-03-17T07:27:36;6.20;99.80
75824;DHT22;64457;51.976;9.834;2024-03-17T07:30:06;6.00;99.90
75824;DHT22;64457;51.976;9.834;2024-03-17T07:32:36;6.40;99.90
75824;DHT22;64457;51.976;9.834;2024-03-17T07:35:08;7.10;99.90
75824;DHT22;64457;51.976;9.834;2024-03-17T07:37:35;7.90;98.90
75824;DHT22;64457;51.976;9.834;2024-03-17T07:40:04;9.60;97.30
75824;DHT22;64457;51.976;9.834;2024-03-17T07:42:36;11.40;94.50
75824;DHT22;64457;51.976;9.834;2024-03-17T07:45:04;13.10;90.10
75824;DHT22;64457;51.976;9.834;2024-03-17T07:47:39;13.60;90.90
75824;DHT22;64457;51.976;9.834;2024-03-17T07:50:07;14.20;85.90
75824;DHT22;64457;51.976;9.834;2024-03-17T07:52:35;15.00;87.00
75824;DHT22;64457;51.976;9.834;2024-03-17T07:55:02;16.50;86.30
75824;DHT22;64457;51.976;9.834;2024-03-17T07:57:36;18.00;80.00
75824;DHT22;64457;51.976;9.834;2024-03-17T08:00:04;19.30;77.60
75824;DHT22;64457;51.976;9.834;2024-03-17T08:02:36;20.30;74.00
75824;DHT22;64457;51.976;9.834;2024-03-17T08:05:04;21.10;71.50
75824;DHT22;64457;51.976;9.834;2024-03-17T08:07:32;21.40;67.30
75824;DHT22;64457;51.976;9.834;2024-03-17T08:10:00;19.30;64.20
75824;DHT22;64457;51.976;9.834;2024-03-17T08:12:29;17.80;71.00
75824;DHT22;64457;51.976;9.834;2024-03-17T08:14:57;18.00;73.30
75824;DHT22;64457;51.976;9.834;2024-03-17T08:17:25;18.00;71.20
75824;DHT22;64457;51.976;9.834;2024-03-17T08:19:53;17.30;74.50
75824;DHT22;64457;51.976;9.834;2024-03-17T08:22:20;17.80;71.80
75824;DHT22;64457;51.976;9.834;2024-03-17T08:24:48;17.90;74.00
75824;DHT22;64457;51.976;9.834;2024-03-17T08:27:15;19.10;76.10
75824;DHT22;64457;51.976;9.834;2024-03-17T08:29:43;20.70;70.70
75824;DHT22;64457;51.976;9.834;2024-03-17T08:32:11;22.00;67.30
75824;DHT22;64457;51.976;9.834;2024-03-17T08:34:40;23.20;65.90
75824;DHT22;64457;51.976;9.834;2024-03-17T08:37:08;23.80;63.10
75824;DHT22;64457;51.976;9.834;2024-03-17T08:39:35;24.20;61.20
75824;DHT22;64457;51.976;9.834;2024-03-17T08:42:03;24.70;60.00
75824;DHT22;64457;51.976;9.834;2024-03-17T08:44:30;24.80;58.20
75824;DHT22;64457;51.976;9.834;2024-03-17T08:46:57;24.60;59.50
75824;DHT22;64457;51.976;9.834;2024-03-17T08:49:26;24.90;58.80
75824;DHT22;64457;51.976;9.834;2024-03-17T08:51:53;25.10;57.30
75824;DHT22;64457;51.976;9.834;2024-03-17T08:54:21;25.20;58.70
75824;DHT22;64457;51.976;9.834;2024-03-17T08:56:48;25.10;56.90
75824;DHT22;64457;51.976;9.834;2024-03-17T08:59:15;25.20;56.80
75824;DHT22;64457;51.976;9.834;2024-03-17T09:01:43;24.90;54.10
75824;DHT22;64457;51.976;9.834;2024-03-17T09:04:10;23.00;57.80
75824;DHT22;64457;51.976;9.834;2024-03-17T09:06:40;22.70;58.60
75824;DHT22;64457;51.976;9.834;2024-03-17T09:09:07;23.40;57.90
75824;DHT22;64457;51.976;9.834;2024-03-17T09:11:34;24.00;58.40
75824;DHT22;64457;51.976;9.834;2024-03-17T09:14:02;22.60;57.60
75824;DHT22;64457;51.976;9.834;2024-03-17T09:16:29;21.50;61.60
75824;DHT22;64457;51.976;9.834;2024-03-17T09:18:57;21.30;61.00
75824;DHT22;64457;51.976;9.834;2024-03-17T09:21:25;21.00;58.60
75824;DHT22;64457;51.976;9.834;2024-03-17T09:23:53;21.80;59.90
75824;DHT22;64457;51.976;9.834;2024-03-17T09:26:21;22.20;58.00
75824;DHT22;64457;51.976;9.834;2024-03-17T09:28:48;21.20;59.00
75824;DHT22;64457;51.976;9.834;2024-03-17T09:31:15;21.50;58.70
75824;DHT22;64457;51.976;9.834;2024-03-17T09:33:42;22.30;59.30
75824;DHT22;64457;51.976;9.834;2024-03-17T09:36:10;23.00;57.60
75824;DHT22;64457;51.976;9.834;2024-03-17T09:38:38;22.30;53.80
75824;DHT22;64457;51.976;9.834;2024-03-17T09:41:07;22.00;55.50
75824;DHT22;64457;51.976;9.834;2024-03-17T09:43:35;21.70;58.70
75824;DHT22;64457;51.976;9.834;2024-03-17T09:46:03;21.30;58.00
75824;DHT22;64457;51.976;9.834;2024-03-17T09:48:31;21.50;57.50
75824;DHT22;64457;51.976;9.834;2024-03-17T09:51:00;22.70;55.80
75824;DHT22;64457;51.976;9.834;2024-03-17T09:53:29;22.90;53.40
75824;DHT22;64457;51.976;9.834;2024-03-17T09:55:59;22.80;55.80
75824;DHT22;64457;51.976;9.834;2024-03-17T09:58:29;23.00;55.70
75824;DHT22;64457;51.976;9.834;2024-03-17T10:00:57;23.00;55.60
75824;DHT22;64457;51.976;9.834;2024-03-17T10:03:42;23.70;54.40
75824;DHT22;64457;51.976;9.834;2024-03-17T10:06:12;24.30;54.50
75824;DHT22;64457;51.976;9.834;2024-03-17T10:08:44;24.30;52.30
75824;DHT22;64457;51.976;9.834;2024-03-17T10:11:12;23.90;53.10
75824;DHT22;64457;51.976;9.834;2024-03-17T10:13:43;24.20;54.30
75824;DHT22;64457;51.976;9.834;2024-03-17T10:16:24;24.20;54.50
75824;DHT22;64457;51.976;9.834;2024-03-17T10:19:06;22.30;52.70
75824;DHT22;64457;51.976;9.834;2024-03-17T10:21:36;21.90;53.90
75824;DHT22;64457;51.976;9.834;2024-03-17T10:24:09;21.40;57.40
75824;DHT22;64457;51.976;9.834;2024-03-17T10:26:38;21.50;55.60
75824;DHT22;64457;51.976;9.834;2024-03-17T10:29:20;21.80;57.70
75824;DHT22;64457;51.976;9.834;2024-03-17T10:31:50;22.60;54.70
75824;DHT22;64457;51.976;9.834;2024-03-17T10:34:19;22.80;55.30
75824;DHT22;64457;51.976;9.834;2024-03-17T10:36:50;23.00;55.40
75824;DHT22;64457;51.976;9.834;2024-03-17T10:39:26;23.00;55.00
75824;DHT22;64457;51.976;9.834;2024-03-17T10:42:00;22.90;53.00
75824;DHT22;64457;51.976;9.834;2024-03-17T10:44:29;22.40;52.60
75824;DHT22;64457;51.976;9.834;2024-03-17T10:46:58;21.40;53.20
75824;DHT22;64457;51.976;9.834;2024-03-17T10:49:29;21.20;53.20
75824;DHT22;64457;51.976;9.834;2024-03-17T10:51:59;20.70;57.70
75824;DHT22;64457;51.976;9.834;2024-03-17T10:54:28;20.90;56.50
75824;DHT22;64457;51.976;9.834;2024-03-17T10:56:57;21.40;56.00
75824;DHT22;64457;51.976;9.834;2024-03-17T10:59:38;21.30;53.90
75824;DHT22;64457;51.976;9.834;2024-03-17T11:02:16;19.30;55.40
75824;DHT22;64457;51.976;9.834;2024-03-17T11:05:00;19.20;59.20
75824;DHT22;64457;51.976;9.834;2024-03-17T11:07:30;19.60;57.30
75824;DHT22;64457;51.976;9.834;2024-03-17T11:09:59;19.60;53.10
75824;DHT22;64457;51.976;9.834;2024-03-17T11:12:43;19.30;59.00
75824;DHT22;64457;51.976;9.834;2024-03-17T11:15:45;18.90;55.90
75824;DHT22;64457;51.976;9.834;2024-03-17T11:18:34;19.10;60.40
75824;DHT22;64457;51.976;9.834;2024-03-17T11:21:04;19.40;55.70
75824;DHT22;64457;51.976;9.834;2024-03-17T11:23:58;18.90;57.80
75824;DHT22;64457;51.976;9.834;2024-03-17T11:26:28;18.80;58.50
75824;DHT22;64457;51.976;9.834;2024-03-17T11:28:59;18.00;56.10
75824;DHT22;64457;51.976;9.834;2024-03-17T11:31:42;17.80;58.40
75824;DHT22;64457;51.976;9.834;2024-03-17T11:34:29;17.80;58.70
75824;DHT22;64457;51.976;9.834;2024-03-17T11:36:58;17.50;57.10
75824;DHT22;64457;51.976;9.834;2024-03-17T11:39:53;17.60;62.20
75824;DHT22;64457;51.976;9.834;2024-03-17T11:42:24;17.50;58.30
75824;DHT22;64457;51.976;9.834;2024-03-17T11:44:57;17.60;61.90
75824;DHT22;64457;51.976;9.834;2024-03-17T11:47:38;18.20;59.60
75824;DHT22;64457;51.976;9.834;2024-03-17T11:50:08;18.50;58.10
75824;DHT22;64457;51.976;9.834;2024-03-17T11:52:38;19.00;56.80
75824;DHT22;64457;51.976;9.834;2024-03-17T11:55:17;19.00;55.10
75824;DHT22;64457;51.976;9.834;2024-03-17T11:57:44;18.80;57.40
75824;DHT22;64457;51.976;9.834;2024-03-17T12:00:23;19.00;56.30
75824;DHT22;64457;51.976;9.834;2024-03-17T12:02:52;18.50;57.00
75824;DHT22;64457;51.976;9.834;2024-03-17T12:05:19;18.40;56.60
75824;DHT22;64457;51.976;9.834;2024-03-17T12:07:46;18.50;60.70
75824;DHT22;64457;51.976;9.834;2024-03-17T12:10:16;18.40;58.50
75824;DHT22;64457;51.976;9.834;2024-03-17T12:12:47;18.00;57.00
75824;DHT22;64457;51.976;9.834;2024-03-17T12:15:19;17.80;60.70
75824;DHT22;64457;51.976;9.834;2024-03-17T12:17:45;18.40;60.90
75824;DHT22;64457;51.976;9.834;2024-03-17T12:20:21;17.70;58.20
75824;DHT22;64457;51.976;9.834;2024-03-17T12:22:48;17.30;59.80
75824;DHT22;64457;51.976;9.834;2024-03-17T12:25:17;17.70;59.20
75824;DHT22;64457;51.976;9.834;2024-03-17T12:27:45;18.30;59.80
75824;DHT22;64457;51.976;9.834;2024-03-17T12:30:18;18.40;59.30
75824;DHT22;64457;51.976;9.834;2024-03-17T12:32:44;18.70;59.20
75824;DHT22;64457;51.976;9.834;2024-03-17T12:35:15;19.20;58.80
75824;DHT22;64457;51.976;9.834;2024-03-17T12:37:45;19.30;57.90
75824;DHT22;64457;51.976;9.834;2024-03-17T12:40:22;19.20;56.50
75824;DHT22;64457;51.976;9.834;2024-03-17T12:42:50;19.20;58.10
75824;DHT22;64457;51.976;9.834;2024-03-17T12:45:22;19.20;58.30
75824;DHT22;64457;51.976;9.834;2024-03-17T12:47:51;19.10;56.00
75824;DHT22;64457;51.976;9.834;2024-03-17T12:50:20;18.80;56.90
75824;DHT22;64457;51.976;9.834;2024-03-17T12:52:55;18.80;56.90
75824;DHT22;64457;51.976;9.834;2024-03-17T12:55:23;18.90;57.70
75824;DHT22;64457;51.976;9.834;2024-03-17T12:58:10;19.00;57.70
75824;DHT22;64457;51.976;9.834;2024-03-17T13:00:59;19.00;59.10
75824;DHT22;64457;51.976;9.834;2024-03-17T13:03:29;18.90;55.40
75824;DHT22;64457;51.976;9.834;2024-03-17T13:05:57;18.60;57.70
75824;DHT22;64457;51.976;9.834;2024-03-17T13:08:27;18.60;57.10
75824;DHT22;64457;51.976;9.834;2024-03-17T13:10:54;17.60;56.20
75824;DHT22;64457;51.976;9.834;2024-03-17T13:13:22;17.30;58.40
75824;DHT22;64457;51.976;9.834;2024-03-17T13:15:52;17.50;60.00
75824;DHT22;64457;51.976;9.834;2024-03-17T13:18:20;17.30;57.60
75824;DHT22;64457;51.976;9.834;2024-03-17T13:20:50;17.20;59.40
75824;DHT22;64457;51.976;9.834;2024-03-17T13:23:19;17.10;58.80
75824;DHT22;64457;51.976;9.834;2024-03-17T13:25:48;17.60;57.70
75824;DHT22;64457;51.976;9.834;2024-03-17T13:28:16;17.90;57.20
75824;DHT22;64457;51.976;9.834;2024-03-17T13:30:43;17.80;57.80
75824;DHT22;64457;51.976;9.834;2024-03-17T13:33:15;17.90;58.90
75824;DHT22;64457;51.976;9.834;2024-03-17T13:35:46;18.00;59.40
75824;DHT22;64457;51.976;9.834;2024-03-17T13:38:17;18.20;58.60
75824;DHT22;64457;51.976;9.834;2024-03-17T13:40:44;18.30;58.00
75824;DHT22;64457;51.976;9.834;2024-03-17T13:43:14;18.50;58.10
75824;DHT22;64457;51.976;9.834;2024-03-17T13:45:42;18.30;57.90
75824;DHT22;64457;51.976;9.834;2024-03-17T13:50:47;17.70;59.30
75824;DHT22;64457;51.976;9.834;2024-03-17T13:53:16;17.80;58.10
75824;DHT22;64457;51.976;9.834;2024-03-17T13:55:48;17.30;57.90
75824;DHT22;64457;51.976;9.834;2024-03-17T13:58:16;17.10;58.70
75824;DHT22;64457;51.976;9.834;2024-03-17T14:00:44;16.60;60.20
75824;DHT22;64457;51.976;9.834;2024-03-17T14:03:14;17.00;60.40
75824;DHT22;64457;51.976;9.834;2024-03-17T14:05:44;17.10;59.00
75824;DHT22;64457;51.976;9.834;2024-03-17T14:08:14;17.50;59.40
75824;DHT22;64457;51.976;9.834;2024-03-17T14:10:43;17.80;58.20
75824;DHT22;64457;51.976;9.834;2024-03-17T14:13:19;17.80;58.60
75824;DHT22;64457;51.976;9.834;2024-03-17T14:15:48;17.70;58.00
75824;DHT22;64457;51.976;9.834;2024-03-17T14:18:15;17.20;59.60
75824;DHT22;64457;51.976;9.834;2024-03-17T14:20:46;17.30;59.30
75824;DHT22;64457;51.976;9.834;2024-03-17T14:23:16;17.40;60.20
75824;DHT22;64457;51.976;9.834;2024-03-17T14:25:44;17.70;58.10
75824;DHT22;64457;51.976;9.834;2024-03-17T14:28:12;17.20;57.80
75824;DHT22;64457;51.976;9.834;2024-03-17T14:30:41;16.30;59.00
75824;DHT22;64457;51.976;9.834;2024-03-17T14:33:15;15.60;60.90
75824;DHT22;64457;51.976;9.834;2024-03-17T14:35:44;15.60;61.70
75824;DHT22;64457;51.976;9.834;2024-03-17T14:38:11;16.10;62.40
75824;DHT22;64457;51.976;9.834;2024-03-17T14:40:40;16.50;62.00
75824;DHT22;64457;51.976;9.834;2024-03-17T14:43:17;17.10;61.80
75824;DHT22;64457;51.976;9.834;2024-03-17T14:45:49;17.20;59.20
75824;DHT22;64457;51.976;9.834;2024-03-17T14:48:16;17.30;61.60
75824;DHT22;64457;51.976;9.834;2024-03-17T14:50:45;17.80;60.40
75824;DHT22;64457;51.976;9.834;2024-03-17T14:53:13;18.20;61.00
75824;DHT22;64457;51.976;9.834;2024-03-17T14:55:42;18.00;57.40
75824;DHT22;64457;51.976;9.834;2024-03-17T14:58:10;17.80;57.60
75824;DHT22;64457;51.976;9.834;2024-03-17T15:00:43;17.70;58.50
75824;DHT22;64457;51.976;9.834;2024-03-17T15:03:13;17.60;58.80
75824;DHT22;64457;51.976;9.834;2024-03-17T15:05:47;17.80;59.10
75824;DHT22;64457;51.976;9.834;2024-03-17T15:08:14;18.00;58.90
75824;DHT22;64457;51.976;9.834;2024-03-17T15:10:42;18.10;57.50
75824;DHT22;64457;51.976;9.834;2024-03-17T15:13:10;17.90;58.10
75824;DHT22;64457;51.976;9.834;2024-03-17T15:15:43;17.80;59.70
75824;DHT22;64457;51.976;9.834;2024-03-17T15:18:14;17.20;58.90
75824;DHT22;64457;51.976;9.834;2024-03-17T15:20:43;17.10;59.30
75824;DHT22;64457;51.976;9.834;2024-03-17T15:23:11;16.80;58.30
75824;DHT22;64457;51.976;9.834;2024-03-17T15:25:38;16.60;59.20
75824;DHT22;64457;51.976;9.834;2024-03-17T15:28:06;16.80;61.20
75824;DHT22;64457;51.976;9.834;2024-03-17T15:30:34;16.90;59.20
75824;DHT22;64457;51.976;9.834;2024-03-17T15:33:01;16.80;60.20
75824;DHT22;64457;51.976;9.834;2024-03-17T15:35:31;16.50;59.30
75824;DHT22;64457;51.976;9.834;2024-03-17T15:37:58;16.00;60.00
75824;DHT22;64457;51.976;9.834;2024-03-17T15:40:25;16.10;62.90
75824;DHT22;64457;51.976;9.834;2024-03-17T15:43:04;16.40;63.60
75824;DHT22;64457;51.976;9.834;2024-03-17T15:45:35;16.60;61.90
75824;DHT22;64457;51.976;9.834;2024-03-17T15:48:04;16.60;59.60
75824;DHT22;64457;51.976;9.834;2024-03-17T15:50:33;16.30;59.60
75824;DHT22;64457;51.976;9.834;2024-03-17T15:53:01;16.20;60.40
75824;DHT22;64457;51.976;9.834;2024-03-17T15:55:29;16.10;59.60